Accueil
METAR-TAF:

METAR-TAF

Aéroports :

Tacoma Narrows Airport

Tacoma, Washington, États-Unis

latitude: 47-16-03N, longitude: 122-34-34W, altitude: 96 m

Observation

Le bulletin a été fait il y a 12 minutes, à 18:29 UTC
Vent calme
Température 4°C
Humidité 100%
Pression 1021 hPa
Visibilité: 1.2 km
Ciel couvert à une hauteur de 200 ft
brume

METAR: KTIW 191829Z 00000KT 3/4SM BR OVC002 04/04 A3015 RMK AO2 T00440044

Heure: 10:41 (18:41 UTC)


TAF: absent

Observations et prévisions météorologiques de plus de 4000 aéroports (messages METAR et TAF).

Les stations disponibles sont représentées par des disques jaunes et rouges sur la carte.

Passer la souris dessus pour voir le nom de la station.

Cliquer dessus pour voir les observations et prévisions météorologiques.

Pour changer de carte: cliquez sur les boutons verts avec une croix noire pour zoomer, sur le bouton vert avec un tiret pour effectuer un zoom arrière, ou sur les flèches vertes pour les cartes adjacentes.


METAR-TAF: